createdAt,value
2023-03-02T00:02:05.183Z,25.23
2023-03-02T00:04:53.348Z,25.48
2023-03-02T00:07:34.977Z,27.85
2023-03-02T00:10:01.770Z,28.38
2023-03-02T00:12:31.837Z,28.60
2023-03-02T00:14:58.360Z,28.42
2023-03-02T00:17:27.815Z,27.90
2023-03-02T00:20:10.318Z,24.80
2023-03-02T00:22:42.074Z,28.88
2023-03-02T00:25:10.530Z,25.70
2023-03-02T00:27:39.679Z,32.15
2023-03-02T00:30:08.068Z,29.70
2023-03-02T00:32:35.055Z,26.15
2023-03-02T00:35:01.605Z,27.60
2023-03-02T00:37:28.266Z,28.20
2023-03-02T00:40:01.614Z,27.40
2023-03-02T00:42:28.413Z,24.77
2023-03-02T00:44:54.979Z,24.70
2023-03-02T00:47:21.559Z,26.35
2023-03-02T00:49:49.417Z,27.90
2023-03-02T00:52:17.102Z,25.10
2023-03-02T00:54:43.623Z,24.75
2023-03-02T00:57:10.248Z,24.90
2023-03-02T00:59:39.925Z,25.92
2023-03-02T01:02:06.969Z,27.90
2023-03-02T01:04:36.308Z,23.60
2023-03-02T01:07:15.569Z,25.70
2023-03-02T01:09:43.433Z,27.73
2023-03-02T01:12:11.280Z,23.73
2023-03-02T01:14:44.273Z,28.60
2023-03-02T01:17:11.837Z,25.50
2023-03-02T01:19:39.059Z,27.73
2023-03-02T01:22:06.420Z,26.98
2023-03-02T01:24:35.981Z,25.08
2023-03-02T01:27:02.587Z,27.17
2023-03-02T01:29:29.244Z,26.48
2023-03-02T01:32:01.082Z,29.67
2023-03-02T01:36:54.641Z,28.33
2023-03-02T01:39:22.564Z,28.77
2023-03-02T01:41:53.253Z,29.20
2023-03-02T01:44:41.588Z,31.08
2023-03-02T01:47:18.688Z,29.52
2023-03-02T01:49:49.969Z,28.23
2023-03-02T01:52:17.417Z,27.13
2023-03-02T01:54:49.956Z,30.10
2023-03-02T01:57:22.492Z,26.92
2023-03-02T01:59:53.869Z,27.55
2023-03-02T02:02:20.444Z,24.90
2023-03-02T02:04:49.118Z,25.55
2023-03-02T02:07:16.289Z,27.77
2023-03-02T02:09:51.616Z,27.45
2023-03-02T02:12:23.593Z,27.08
2023-03-02T02:14:50.768Z,27.25
2023-03-02T02:17:19.024Z,27.30
2023-03-02T02:20:19.587Z,29.48
2023-03-02T02:23:05.066Z,29.80
2023-03-02T02:25:49.765Z,28.52
2023-03-02T02:28:49.630Z,26.10
2023-03-02T02:31:21.233Z,27.50
2023-03-02T02:33:53.670Z,28.33
2023-03-02T02:36:23.725Z,28.50
2023-03-02T02:38:54.177Z,26.55
2023-03-02T02:41:25.707Z,27.05
2023-03-02T02:43:53.906Z,28.75
2023-03-02T02:46:20.645Z,28.50
2023-03-02T02:48:47.238Z,28.10
2023-03-02T02:51:21.352Z,30.83
2023-03-02T02:54:01.423Z,30.02
2023-03-02T02:56:33.825Z,27.77
2023-03-02T02:59:07.932Z,28.63
2023-03-02T03:01:35.936Z,28.67
2023-03-02T03:04:05.104Z,26.33
2023-03-02T03:06:42.050Z,27.10
2023-03-02T03:09:11.223Z,31.55
2023-03-02T03:11:43.050Z,28.17
2023-03-02T03:14:15.469Z,27.98
2023-03-02T03:16:45.940Z,29.13
2023-03-02T03:19:32.943Z,29.20
2023-03-02T03:22:03.464Z,26.73
2023-03-02T03:24:32.170Z,29.05
2023-03-02T03:26:59.177Z,29.45
2023-03-02T03:29:28.854Z,29.38
2023-03-02T03:31:57.042Z,31.55
2023-03-02T03:34:25.207Z,30.55
2023-03-02T03:36:52.143Z,29.98
2023-03-02T03:39:20.121Z,31.35
2023-03-02T03:41:46.797Z,32.75
2023-03-02T03:44:13.254Z,28.58
2023-03-02T03:46:39.789Z,29.05
2023-03-02T03:49:06.302Z,33.33
2023-03-02T03:51:35.580Z,31.55
2023-03-02T03:54:04.345Z,30.08
2023-03-02T03:56:33.905Z,31.73
2023-03-02T03:59:07.627Z,31.80
2023-03-02T04:01:38.086Z,32.17
2023-03-02T04:04:07.342Z,33.00
2023-03-02T04:06:34.712Z,30.23
2023-03-02T04:09:04.878Z,28.40
2023-03-02T04:11:34.209Z,32.70
2023-03-02T04:14:01.215Z,28.08
2023-03-02T04:16:28.556Z,32.80
2023-03-02T04:18:55.042Z,32.90
2023-03-02T04:21:21.660Z,28.25
2023-03-02T04:24:00.197Z,31.80
2023-03-02T04:26:27.278Z,30.25
2023-03-02T04:28:56.834Z,32.10
2023-03-02T04:31:25.514Z,32.53
2023-03-02T04:33:52.016Z,28.95
2023-03-02T04:36:19.651Z,32.53
2023-03-02T04:38:47.975Z,32.33
2023-03-02T04:41:22.349Z,35.50
2023-03-02T04:43:49.464Z,28.42
2023-03-02T04:46:20.045Z,35.45
2023-03-02T04:48:47.675Z,30.02
2023-03-02T04:51:24.212Z,30.80
2023-03-02T04:53:56.392Z,31.95
2023-03-02T04:56:23.124Z,33.22
2023-03-02T04:58:49.682Z,29.33
2023-03-02T05:01:18.067Z,32.42
2023-03-02T05:03:44.579Z,29.27
2023-03-02T05:06:11.380Z,30.27
2023-03-02T05:08:38.558Z,29.83
2023-03-02T05:11:08.325Z,33.45
2023-03-02T05:13:35.808Z,33.38
2023-03-02T05:16:02.685Z,28.52
2023-03-02T05:18:29.431Z,28.10
2023-03-02T05:20:55.986Z,30.42
2023-03-02T05:23:27.105Z,30.08
2023-03-02T05:25:56.934Z,28.17
2023-03-02T05:28:26.060Z,32.53
2023-03-02T05:30:53.245Z,31.67
2023-03-02T05:33:19.930Z,38.67
2023-03-02T05:35:47.712Z,34.22
2023-03-02T05:38:14.831Z,28.52
2023-03-02T05:40:43.607Z,32.20
2023-03-02T05:43:16.063Z,34.38
2023-03-02T05:45:42.629Z,32.60
2023-03-02T05:48:10.481Z,33.63
2023-03-02T05:50:46.138Z,34.03
2023-03-02T05:53:13.171Z,33.85
2023-03-02T05:55:39.679Z,31.42
2023-03-02T05:58:09.071Z,31.88
2023-03-02T06:00:35.730Z,31.90
2023-03-02T06:03:02.313Z,38.00
2023-03-02T06:05:28.842Z,39.83
2023-03-02T06:07:55.262Z,35.67
2023-03-02T06:10:22.030Z,34.75
2023-03-02T06:12:48.499Z,29.77
2023-03-02T06:15:16.296Z,30.92
2023-03-02T06:17:42.918Z,32.20
2023-03-02T06:20:12.443Z,32.38
2023-03-02T06:22:45.254Z,28.95
2023-03-02T06:25:23.848Z,33.45
2023-03-02T06:27:51.742Z,32.78
2023-03-02T06:30:24.542Z,32.67
2023-03-02T06:32:51.717Z,33.00
2023-03-02T06:35:18.500Z,32.72
2023-03-02T06:37:46.124Z,37.85
2023-03-02T06:40:13.903Z,31.98
2023-03-02T06:42:41.958Z,37.53
2023-03-02T06:45:10.323Z,33.75
2023-03-02T06:47:37.116Z,35.05
2023-03-02T06:50:04.634Z,47.88
2023-03-02T06:52:31.166Z,41.58
2023-03-02T06:55:01.679Z,38.92
2023-03-02T06:57:34.091Z,35.33
2023-03-02T07:00:09.688Z,38.38
2023-03-02T07:02:37.237Z,38.60
2023-03-02T07:05:04.222Z,37.05
2023-03-02T07:07:30.734Z,39.53
2023-03-02T07:09:57.301Z,35.05
2023-03-02T07:12:23.772Z,34.10
2023-03-02T07:14:50.336Z,34.88
2023-03-02T07:17:16.837Z,33.55
2023-03-02T07:19:43.376Z,51.83
2023-03-02T07:22:09.881Z,35.10
2023-03-02T07:24:37.347Z,33.47
2023-03-02T07:27:04.383Z,40.60
2023-03-02T07:29:30.890Z,36.10
2023-03-02T07:32:00.275Z,33.90
2023-03-02T07:34:27.544Z,30.52
2023-03-02T07:36:55.341Z,32.60
2023-03-02T07:39:22.006Z,30.80
2023-03-02T07:41:48.703Z,31.95
2023-03-02T07:44:17.227Z,35.88
2023-03-02T07:46:43.744Z,31.80
2023-03-02T07:49:10.465Z,29.15
2023-03-02T07:51:37.253Z,32.45
2023-03-02T07:54:05.035Z,33.53
2023-03-02T07:56:31.672Z,35.58
2023-03-02T07:58:58.207Z,27.25
2023-03-02T08:01:26.010Z,31.80
2023-03-02T08:03:52.651Z,27.95
2023-03-02T08:06:19.153Z,31.90
2023-03-02T08:08:46.025Z,29.63
2023-03-02T08:11:15.867Z,32.13
2023-03-02T08:13:43.062Z,27.02
2023-03-02T08:16:11.640Z,32.45
2023-03-02T08:18:40.752Z,28.38
2023-03-02T08:21:22.244Z,33.25
2023-03-02T08:23:50.718Z,23.15
2023-03-02T08:26:18.740Z,31.40
2023-03-02T08:28:45.647Z,26.70
2023-03-02T08:31:13.320Z,24.42
2023-03-02T08:33:40.126Z,26.00
2023-03-02T08:36:10.683Z,28.27
2023-03-02T08:38:37.470Z,26.80
2023-03-02T08:41:10.761Z,24.98
2023-03-02T08:43:37.407Z,25.60
2023-03-02T08:46:04.059Z,27.35
2023-03-02T08:48:30.593Z,26.83
2023-03-02T08:51:07.184Z,26.05
2023-03-02T08:53:37.169Z,26.88
2023-03-02T08:56:04.234Z,26.17
2023-03-02T08:58:30.692Z,23.85
2023-03-02T09:00:57.206Z,25.40
2023-03-02T09:03:23.933Z,26.20
2023-03-02T09:05:51.035Z,27.50
2023-03-02T09:08:18.512Z,26.10
2023-03-02T09:10:45.137Z,25.20
2023-03-02T09:13:11.662Z,23.02
2023-03-02T09:15:38.173Z,26.83
2023-03-02T09:18:04.912Z,23.48
2023-03-02T09:20:32.185Z,24.55
2023-03-02T09:22:59.781Z,25.20
2023-03-02T09:25:26.286Z,23.40
2023-03-02T09:27:53.855Z,24.42
2023-03-02T09:30:20.324Z,23.42
2023-03-02T09:32:49.006Z,21.27
2023-03-02T09:35:15.691Z,25.38
2023-03-02T09:37:44.514Z,21.98
2023-03-02T09:40:22.256Z,24.40
2023-03-02T09:43:11.626Z,19.85
2023-03-02T09:45:50.129Z,21.02
2023-03-02T09:48:29.561Z,21.65
2023-03-02T09:51:05.413Z,20.98
2023-03-02T09:53:42.100Z,22.52
2023-03-02T09:56:20.054Z,23.67
2023-03-02T09:59:01.246Z,25.63
2023-03-02T10:01:36.521Z,25.60
2023-03-02T10:04:17.762Z,25.75
2023-03-02T10:06:46.709Z,25.17
2023-03-02T10:09:13.317Z,23.75
2023-03-02T10:11:44.445Z,20.75
2023-03-02T10:14:19.976Z,24.17
2023-03-02T10:17:10.065Z,24.08
2023-03-02T10:19:49.929Z,26.70
2023-03-02T10:22:20.384Z,24.98
2023-03-02T10:24:53.900Z,22.13
2023-03-02T10:27:26.294Z,21.75
2023-03-02T10:30:06.531Z,23.70
2023-03-02T10:32:37.422Z,22.13
2023-03-02T10:35:21.179Z,22.42
2023-03-02T10:37:48.324Z,23.08
2023-03-02T10:40:40.042Z,22.35
2023-03-02T10:43:15.363Z,21.80
2023-03-02T10:45:43.192Z,22.25
2023-03-02T10:48:12.732Z,21.98
2023-03-02T10:50:39.581Z,19.85
2023-03-02T10:53:25.233Z,20.75
2023-03-02T10:55:53.570Z,22.90
2023-03-02T10:58:20.149Z,22.45
2023-03-02T11:01:15.048Z,22.73
2023-03-02T11:03:42.658Z,21.10
2023-03-02T11:06:19.053Z,20.13
2023-03-02T11:08:58.445Z,21.63
2023-03-02T11:11:25.225Z,21.73
2023-03-02T11:13:51.754Z,23.17
2023-03-02T11:16:18.196Z,20.38
2023-03-02T11:18:52.425Z,21.02
2023-03-02T11:21:42.908Z,26.73
2023-03-02T11:24:18.474Z,22.35
2023-03-02T11:26:50.108Z,22.17
2023-03-02T11:29:16.624Z,21.70
2023-03-02T11:31:50.643Z,22.58
2023-03-02T11:34:20.092Z,22.25
2023-03-02T11:37:21.631Z,19.58
2023-03-02T11:39:55.103Z,18.55
2023-03-02T11:42:31.593Z,23.52
2023-03-02T11:45:06.250Z,22.17
2023-03-02T11:47:34.086Z,17.42
2023-03-02T11:50:05.394Z,21.65
2023-03-02T11:52:36.752Z,19.35
2023-03-02T11:55:18.400Z,21.02
2023-03-02T11:57:49.875Z,19.27
2023-03-02T12:00:38.997Z,20.25
2023-03-02T12:03:25.698Z,22.73
2023-03-02T12:05:52.098Z,18.15
2023-03-02T12:08:18.471Z,19.02
2023-03-02T12:10:57.201Z,19.50
2023-03-02T12:13:26.494Z,18.27
2023-03-02T12:15:53.297Z,20.33
2023-03-02T12:18:22.698Z,22.55
2023-03-02T12:21:05.594Z,17.95
2023-03-02T12:23:53.155Z,18.20
2023-03-02T12:26:19.568Z,19.20
2023-03-02T12:29:09.635Z,18.42
2023-03-02T12:31:56.509Z,22.45
2023-03-02T12:34:35.281Z,20.15
2023-03-02T12:37:08.258Z,20.48
2023-03-02T12:40:03.937Z,20.58
2023-03-02T12:42:52.009Z,18.15
2023-03-02T12:45:40.249Z,20.80
2023-03-02T12:48:20.459Z,19.75
2023-03-02T12:50:48.014Z,20.33
2023-03-02T12:53:19.578Z,21.30
2023-03-02T12:55:46.838Z,17.73
2023-03-02T12:58:23.896Z,25.05
2023-03-02T13:01:02.046Z,21.73
2023-03-02T13:03:31.632Z,16.67
2023-03-02T13:06:13.413Z,19.40
2023-03-02T13:08:43.106Z,20.95
2023-03-02T13:11:09.601Z,16.17
2023-03-02T13:13:43.041Z,19.27
2023-03-02T13:16:32.512Z,18.42
2023-03-02T13:19:05.854Z,20.20
2023-03-02T13:21:39.416Z,19.08
2023-03-02T13:24:36.037Z,19.25
2023-03-02T13:27:14.165Z,20.10
2023-03-02T13:29:40.710Z,17.05
2023-03-02T13:32:35.393Z,20.73
2023-03-02T13:35:07.421Z,21.45
2023-03-02T13:37:40.754Z,30.13
2023-03-02T13:40:27.400Z,23.17
2023-03-02T13:42:54.669Z,22.08
2023-03-02T13:45:23.439Z,20.27
2023-03-02T13:47:50.015Z,18.95
2023-03-02T13:50:22.290Z,19.23
2023-03-02T13:52:50.106Z,19.38
2023-03-02T13:55:19.532Z,19.20
2023-03-02T13:57:47.459Z,19.77
2023-03-02T14:00:16.874Z,18.77
2023-03-02T14:02:43.805Z,19.58
2023-03-02T14:05:17.722Z,20.15
2023-03-02T14:07:53.212Z,17.70
2023-03-02T14:10:20.721Z,20.33
2023-03-02T14:12:58.312Z,24.00
2023-03-02T14:15:25.358Z,19.73
2023-03-02T14:17:51.837Z,23.55
2023-03-02T14:20:20.342Z,21.38
2023-03-02T14:22:50.754Z,19.98
2023-03-02T14:25:20.478Z,21.83
2023-03-02T14:27:48.165Z,20.90
2023-03-02T14:30:20.182Z,18.88
2023-03-02T14:32:48.794Z,20.42
2023-03-02T14:35:16.756Z,24.88
2023-03-02T14:37:47.299Z,19.20
2023-03-02T14:40:18.535Z,19.33
2023-03-02T14:42:45.097Z,21.35
2023-03-02T14:45:12.409Z,20.65
2023-03-02T14:47:41.011Z,19.27
2023-03-02T14:50:08.137Z,19.88
2023-03-02T14:52:42.879Z,19.17
2023-03-02T14:55:19.858Z,21.08
2023-03-02T14:57:50.045Z,21.98
2023-03-02T15:00:16.881Z,20.70
2023-03-02T15:02:49.494Z,21.00
2023-03-02T15:05:16.403Z,21.60
2023-03-02T15:07:43.414Z,24.27
2023-03-02T15:10:18.818Z,18.90
2023-03-02T15:12:45.500Z,22.58
2023-03-02T15:15:12.740Z,21.63
2023-03-02T15:17:40.589Z,26.10
2023-03-02T15:20:08.186Z,21.02
2023-03-02T15:22:34.996Z,20.73
2023-03-02T15:25:01.468Z,20.83
2023-03-02T15:27:28.580Z,20.52
2023-03-02T15:29:56.872Z,21.55
2023-03-02T15:32:23.706Z,17.45
2023-03-02T15:34:50.161Z,20.30
2023-03-02T15:37:16.745Z,21.88
2023-03-02T15:39:44.504Z,21.60
2023-03-02T15:42:12.765Z,21.90
2023-03-02T15:44:40.472Z,19.55
2023-03-02T15:47:07.090Z,22.08
2023-03-02T15:49:33.621Z,18.33
2023-03-02T15:52:00.148Z,19.38
2023-03-02T15:54:29.426Z,19.80
2023-03-02T15:56:56.796Z,19.83
2023-03-02T15:59:25.558Z,17.73
2023-03-02T16:01:52.563Z,22.50
2023-03-02T16:04:19.888Z,22.48
2023-03-02T16:06:47.565Z,19.98
2023-03-02T16:09:14.081Z,20.15
2023-03-02T16:11:41.080Z,18.08
2023-03-02T16:14:07.597Z,21.63
2023-03-02T16:16:34.206Z,20.75
2023-03-02T16:19:01.224Z,19.55
2023-03-02T16:21:28.948Z,21.13
2023-03-02T16:24:03.300Z,19.63
2023-03-02T16:26:31.117Z,20.70
2023-03-02T16:28:57.720Z,21.23
2023-03-02T16:31:28.496Z,23.38
2023-03-02T16:33:57.510Z,18.97
2023-03-02T16:36:24.039Z,22.52
2023-03-02T16:38:52.234Z,20.50
2023-03-02T16:41:21.224Z,21.20
2023-03-02T16:43:53.758Z,24.48
2023-03-02T16:46:23.094Z,21.35
2023-03-02T16:48:57.233Z,20.48
2023-03-02T16:51:24.090Z,18.50
2023-03-02T16:53:50.653Z,20.98
2023-03-02T16:56:17.195Z,19.52
2023-03-02T16:58:46.130Z,17.63
2023-03-02T17:01:16.553Z,17.00
2023-03-02T17:03:44.190Z,20.38
2023-03-02T17:06:12.627Z,16.15
2023-03-02T17:08:39.482Z,17.98
2023-03-02T17:11:06.586Z,17.95
2023-03-02T17:13:33.223Z,18.38
2023-03-02T17:16:00.273Z,16.90
2023-03-02T17:18:27.901Z,16.30
2023-03-02T17:20:56.271Z,24.50
2023-03-02T17:23:23.480Z,18.80
2023-03-02T17:25:55.881Z,17.88
2023-03-02T17:28:22.643Z,20.55
2023-03-02T17:30:49.418Z,20.27
2023-03-02T17:33:18.238Z,17.83
2023-03-02T17:35:46.365Z,20.52
2023-03-02T17:38:13.212Z,18.92
2023-03-02T17:40:41.444Z,17.05
2023-03-02T17:43:11.454Z,17.70
2023-03-02T17:45:38.785Z,18.20
2023-03-02T17:48:05.669Z,16.05
2023-03-02T17:50:32.512Z,17.73
2023-03-02T17:52:59.941Z,20.48
2023-03-02T17:55:29.226Z,19.88
2023-03-02T17:57:55.690Z,28.05
2023-03-02T18:00:23.490Z,57.83
2023-03-02T18:02:50.512Z,72.40
2023-03-02T18:05:17.310Z,93.85
2023-03-02T18:07:54.757Z,24.50
2023-03-02T18:10:21.296Z,65.95
2023-03-02T18:12:48.497Z,37.17
2023-03-02T18:15:14.972Z,45.88
2023-03-02T18:17:41.605Z,43.13
2023-03-02T18:20:09.936Z,28.52
2023-03-02T18:22:36.386Z,26.85
2023-03-02T18:25:03.247Z,24.45
2023-03-02T18:27:31.842Z,25.92
2023-03-02T18:29:58.729Z,25.92
2023-03-02T18:32:25.872Z,24.77
2023-03-02T18:34:52.413Z,22.33
2023-03-02T18:37:19.065Z,22.67
2023-03-02T18:39:45.904Z,17.98
2023-03-02T18:42:12.798Z,29.48
2023-03-02T18:44:39.493Z,32.47
2023-03-02T18:47:07.507Z,26.48
2023-03-02T18:49:33.981Z,70.28
2023-03-02T18:52:05.709Z,58.30
2023-03-02T18:54:32.751Z,44.67
2023-03-02T18:57:00.068Z,55.67
2023-03-02T18:59:26.534Z,36.47
2023-03-02T19:01:55.185Z,66.75
2023-03-02T19:04:26.484Z,35.90
2023-03-02T19:06:55.714Z,62.47
2023-03-02T19:09:25.505Z,38.78
2023-03-02T19:11:52.090Z,47.20
2023-03-02T19:14:18.793Z,29.75
2023-03-02T19:16:46.003Z,30.42
2023-03-02T19:19:12.623Z,27.73
2023-03-02T19:21:39.105Z,61.42
2023-03-02T19:24:06.117Z,98.57
2023-03-02T19:26:33.056Z,99.75
2023-03-02T19:29:00.761Z,89.93
2023-03-02T19:31:27.876Z,55.17
2023-03-02T19:33:54.561Z,44.90
2023-03-02T19:36:21.024Z,32.70
2023-03-02T19:38:47.625Z,39.97
2023-03-02T19:41:17.117Z,32.97
2023-03-02T19:43:46.230Z,32.38
2023-03-02T19:46:15.161Z,40.25
2023-03-02T19:48:45.681Z,38.30
2023-03-02T19:51:13.769Z,31.63
2023-03-02T19:53:49.489Z,28.73
2023-03-02T19:56:16.577Z,26.42
2023-03-02T19:58:53.729Z,24.48
2023-03-02T20:01:22.582Z,30.13
2023-03-02T20:03:52.914Z,26.88
2023-03-02T20:06:21.563Z,28.65
2023-03-02T20:08:49.714Z,28.50
2023-03-02T20:11:17.431Z,26.92
2023-03-02T20:13:44.400Z,26.95
2023-03-02T20:16:13.735Z,28.88
2023-03-02T20:18:42.259Z,27.88
2023-03-02T20:21:08.904Z,23.73
2023-03-02T20:23:39.492Z,50.85
2023-03-02T20:26:08.960Z,41.60
2023-03-02T20:28:36.278Z,36.20
2023-03-02T20:31:08.916Z,27.67
2023-03-02T20:33:41.316Z,29.52
2023-03-02T20:36:09.335Z,29.58
2023-03-02T20:38:40.661Z,26.95
2023-03-02T20:41:09.977Z,49.58
2023-03-02T20:43:36.727Z,28.75
2023-03-02T20:46:04.712Z,28.67
2023-03-02T20:48:31.438Z,32.88
2023-03-02T20:50:58.678Z,35.00
2023-03-02T20:53:26.385Z,29.58
2023-03-02T20:55:52.850Z,54.20
2023-03-02T20:58:19.695Z,34.28
2023-03-02T21:00:46.337Z,28.05
2023-03-02T21:03:12.848Z,41.08
2023-03-02T21:05:41.378Z,25.42
2023-03-02T21:08:14.662Z,31.58
2023-03-02T21:10:43.050Z,30.27
2023-03-02T21:13:11.636Z,27.27
2023-03-02T21:15:38.407Z,25.25
2023-03-02T21:18:05.422Z,21.42
2023-03-02T21:20:34.099Z,29.55
2023-03-02T21:23:00.560Z,25.73
2023-03-02T21:25:28.411Z,23.35
2023-03-02T21:27:56.334Z,26.45
2023-03-02T21:30:27.932Z,23.70
2023-03-02T21:32:54.694Z,38.55
2023-03-02T21:35:21.994Z,25.95
2023-03-02T21:37:52.350Z,24.65
2023-03-02T21:40:23.867Z,22.17
2023-03-02T21:42:50.341Z,21.42
2023-03-02T21:45:18.517Z,21.83
2023-03-02T21:47:51.171Z,22.38
2023-03-02T21:50:24.573Z,22.63
2023-03-02T21:52:51.061Z,25.48
2023-03-02T21:55:17.579Z,22.27
2023-03-02T21:57:44.633Z,24.52
2023-03-02T22:00:24.055Z,26.45
2023-03-02T22:02:51.037Z,26.60
2023-03-02T22:05:18.586Z,22.92
2023-03-02T22:07:45.659Z,25.88
2023-03-02T22:10:23.983Z,26.35
2023-03-02T22:12:56.035Z,23.27
2023-03-02T22:15:24.264Z,22.45
2023-03-02T22:17:51.391Z,23.50
2023-03-02T22:20:19.826Z,25.80
2023-03-02T22:22:47.960Z,22.00
2023-03-02T22:25:17.274Z,20.67
2023-03-02T22:27:44.763Z,21.73
2023-03-02T22:30:23.557Z,21.00
2023-03-02T22:32:50.601Z,21.65
2023-03-02T22:35:26.506Z,23.15
2023-03-02T22:38:11.695Z,20.92
2023-03-02T22:40:38.505Z,25.08
2023-03-02T22:43:24.734Z,22.52
2023-03-02T22:45:52.277Z,21.33
2023-03-02T22:48:22.986Z,22.33
2023-03-02T22:50:50.296Z,19.98
2023-03-02T22:53:23.309Z,21.83
2023-03-02T22:55:54.224Z,21.00
2023-03-02T22:58:48.526Z,22.57
2023-03-02T23:01:47.559Z,24.10
2023-03-02T23:04:18.415Z,22.17
2023-03-02T23:06:56.098Z,20.20
2023-03-02T23:09:34.926Z,22.70
2023-03-02T23:12:19.574Z,23.65
2023-03-02T23:14:52.110Z,26.13
2023-03-02T23:17:22.516Z,22.08
2023-03-02T23:19:50.744Z,22.15
2023-03-02T23:22:17.630Z,25.70
2023-03-02T23:24:44.107Z,22.73
2023-03-02T23:27:11.340Z,27.17
2023-03-02T23:29:38.202Z,23.63
2023-03-02T23:32:05.081Z,20.33
2023-03-02T23:34:31.740Z,18.15
2023-03-02T23:36:59.579Z,19.10
2023-03-02T23:39:26.763Z,21.85
2023-03-02T23:41:55.656Z,21.52
2023-03-02T23:44:22.218Z,21.13
2023-03-02T23:46:49.323Z,22.73
2023-03-02T23:49:16.034Z,18.23
2023-03-02T23:51:43.448Z,20.75
2023-03-02T23:54:14.681Z,21.05
2023-03-02T23:56:41.196Z,22.23
2023-03-02T23:59:07.692Z,21.63
